East Smethport, Pennsylvania
Current Conditions -  °F | °C
As of 11:53 AM on Friday 28 Nov 2014 (Local Time) from KBFD Reporting Station
Overcast Overcast  
Wind Chill:   Ceiling: 2800
Heat Index: 20°   Visibility: 10mi
Dew Point:   Wind: 13mph
Humidity: 60%   Direction: 290°WNW
Pressure: 30.17"   Gusts: NA
Location:  41.81°N, 78.42°W
Report Text: KBFD 281653Z AUTO 29011KT 10SM OVC028 M07/M13 A3017 RMK AO2 SNB1558E29 SLP245 P0000 T10671133
Loading
Personal Weather Stations






























Interactive Weather Map New forecast layout! Learn more

10-Day Weather Forecast

Advertisements
Track Severe Weather on mobile